28 de maio de 2022

Hora Código Clima Temp. Visibilidade Tecto Vento METAR/SPECI
5:30 da tarde
V
72 °F 6¼ mi+ - 330° 330° 8 kt METAR LFLW 281530Z AUTO 33008KT 270V020 CAVOK 22/08 Q1015 NOSIG
5:00 da tarde
V
72 °F 6¼ mi+ - 330° 330° 9 kt METAR LFLW 281500Z AUTO 33009KT 280V020 CAVOK 22/09 Q1015 NOSIG
4:30 da tarde
V
72 °F 6¼ mi+ - 360° 360° 7 kt METAR LFLW 281430Z AUTO 36007KT 300V060 CAVOK 22/07 Q1016 NOSIG
4:00 da tarde
V
72 °F 6¼ mi+ - 340° 340° 9 kt METAR LFLW 281400Z AUTO 34009KT 300V020 CAVOK 22/06 Q1016 NOSIG
3:30 da tarde
V
72 °F 6¼ mi+ - 330° 330° 9 kt METAR LFLW 281330Z AUTO 33009KT 300V010 CAVOK 22/07 Q1016 NOSIG
3:00 da tarde
V
72 °F 6¼ mi+ - 350° 350° 11 kt METAR LFLW 281300Z AUTO 35011KT 300V010 CAVOK 22/07 Q1016 NOSIG
2:30 da tarde
V
72 °F 6¼ mi+ - 360° 360° 9 kt METAR LFLW 281230Z AUTO 36009KT 290V070 CAVOK 22/08 Q1016 NOSIG
2:00 da tarde
V
72 °F 6¼ mi+ - Var Var 4 kt METAR LFLW 281200Z AUTO VRB04KT CAVOK 22/08 Q1017 NOSIG
1:30 da tarde
V
70 °F 6¼ mi+ - Var Var 4 kt METAR LFLW 281130Z AUTO VRB04KT CAVOK 21/09 Q1017 NOSIG
1:00 da tarde
V
68 °F 6¼ mi+ - 270° 270° 4 kt METAR LFLW 281100Z AUTO 27004KT 180V320 CAVOK 20/11 Q1018 NOSIG
12:30 da tarde
V
66 °F 6¼ mi+ - Var Var 3 kt METAR LFLW 281030Z AUTO VRB03KT CAVOK 19/10 Q1018 NOSIG
12:00 da tarde
V
64 °F 6¼ mi+ - 320° 320° 4 kt METAR LFLW 281000Z AUTO 32004KT 240V020 CAVOK 18/11 Q1018 NOSIG
11:30 da manhã
V
64 °F 6¼ mi+ - 330° 330° 5 kt METAR LFLW 280930Z AUTO 33005KT 240V020 CAVOK 18/11 Q1018 NOSIG
11:00 da manhã
V
63 °F 6¼ mi+ - 290° 290° 4 kt METAR LFLW 280900Z AUTO 29004KT 240V010 CAVOK 17/11 Q1018 NOSIG
10:30 da manhã
V
61 °F 6¼ mi+ - 340° 340° 4 kt METAR LFLW 280830Z AUTO 34004KT 290V020 CAVOK 16/11 Q1019 NOSIG
10:00 da manhã
V
59 °F 6¼ mi+ - 340° 340° 4 kt METAR LFLW 280800Z AUTO 34004KT 280V010 CAVOK 15/11 Q1019 NOSIG
9:30 da manhã
V
59 °F 6¼ mi+ - 320° 320° 3 kt METAR LFLW 280730Z AUTO 32003KT 280V030 CAVOK 15/11 Q1019 NOSIG
9:00 da manhã
V
57 °F 6¼ mi+ - Var 000° 0 kt METAR LFLW 280700Z AUTO 00000KT CAVOK 14/10 Q1019 NOSIG
8:30 da manhã
V
55 °F 6¼ mi+ - Var Var 1 kt METAR LFLW 280630Z AUTO VRB01KT CAVOK 13/10 Q1019 NOSIG
8:00 da manhã
V
52 °F 6¼ mi+ - Var 000° 0 kt METAR LFLW 280600Z AUTO 00000KT CAVOK 11/10 Q1019 NOSIG
7:30 da manhã
V
48 °F 6¼ mi+ - Var Var 2 kt METAR LFLW 280530Z AUTO VRB02KT CAVOK 09/09 Q1019 NOSIG
7:00 da manhã
V
46 °F 6¼ mi+ - Var Var 2 kt METAR LFLW 280500Z AUTO VRB02KT CAVOK 08/07 Q1019
6:30 da manhã
V
46 °F 6¼ mi+ - 300° 300° 3 kt METAR LFLW 280430Z AUTO 30003KT CAVOK 08/07 Q1019
6:00 da manhã
L
45 °F ¾ mi - Var Var 2 kt METAR LFLW 280400Z AUTO VRB02KT 8000 1300 R15/P2000 NSC 07/07 Q1019
5:30 da manhã
V
46 °F 5⅝ mi - 100° 100° 2 kt METAR LFLW 280330Z AUTO 10002KT 9000 NSC 08/07 Q1019
5:00 da manhã
V
46 °F 6¼ mi+ - 130° 130° 3 kt METAR LFLW 280300Z AUTO 13003KT CAVOK 08/07 Q1020
4:30 da manhã
V
46 °F 6¼ mi+ - 110° 110° 1 kt METAR LFLW 280230Z AUTO 11001KT CAVOK 08/07 Q1020
4:00 da manhã
V
46 °F 6¼ mi+ - Var Var 1 kt METAR LFLW 280200Z AUTO VRB01KT CAVOK 08/08 Q1020
3:30 da manhã
V
48 °F 6¼ mi+ - Var Var 2 kt METAR LFLW 280130Z AUTO VRB02KT CAVOK 09/08 Q1021
3:00 da manhã
V
50 °F 6¼ mi+ - Var Var 2 kt METAR LFLW 280100Z AUTO VRB02KT CAVOK 10/08 Q1021
2:30 da manhã
V
52 °F 6¼ mi+ - 210° 210° 3 kt METAR LFLW 280030Z AUTO 21003KT CAVOK 11/10 Q1021
2:00 da manhã
V
52 °F 6¼ mi+ - Var 000° 0 kt METAR LFLW 280000Z AUTO 00000KT CAVOK 11/10 Q1021
1:30 da manhã
V
52 °F 6¼ mi+ - Var Var 3 kt METAR LFLW 272330Z AUTO VRB03KT CAVOK 11/10 Q1022
1:00 da manhã
V
52 °F 6¼ mi+ - Var Var 2 kt METAR LFLW 272300Z AUTO VRB02KT CAVOK 11/09 Q1022
12:30 da manhã
V
54 °F 6¼ mi+ - Var Var 2 kt METAR LFLW 272230Z AUTO VRB02KT CAVOK 12/09 Q1022
12:00 da manhã
V
55 °F 6¼ mi+ - Var Var 2 kt METAR LFLW 272200Z AUTO VRB02KT CAVOK 13/10 Q1022

27 de maio de 2022

Hora Código Clima Temp. Visibilidade Tecto Vento METAR/SPECI
11:30 da tarde
V
59 °F 6¼ mi+ - 260° 260° 2 kt METAR LFLW 272130Z AUTO 26002KT CAVOK 15/10 Q1022
11:00 da tarde
V
61 °F 6¼ mi+ - Var Var 3 kt METAR LFLW 272100Z AUTO VRB03KT CAVOK 16/10 Q1022
10:30 da tarde
V
63 °F 6¼ mi+ - 310° 310° 4 kt METAR LFLW 272030Z AUTO 31004KT 280V340 CAVOK 17/10 Q1022
10:00 da tarde
V
64 °F 6¼ mi+ - 310° 310° 4 kt METAR LFLW 272000Z AUTO 31004KT 280V350 CAVOK 18/10 Q1022
9:30 da tarde
V
66 °F 6¼ mi+ - 310° 310° 4 kt METAR LFLW 271930Z AUTO 31004KT 270V350 CAVOK 19/10 Q1022
9:00 da tarde
V
68 °F 6¼ mi+ - 320° 320° 5 kt METAR LFLW 271900Z AUTO 32005KT 270V360 CAVOK 20/10 Q1022
8:30 da tarde
V
70 °F 6¼ mi+ - 320° 320° 6 kt METAR LFLW 271830Z AUTO 32006KT 280V350 CAVOK 21/11 Q1022
8:00 da tarde
V
72 °F 6¼ mi+ - 320° 320° 8 kt METAR LFLW 271800Z AUTO 32008KT 270V360 CAVOK 22/11 Q1022
7:30 da tarde
V
72 °F 6¼ mi+ - 340° 340° 10 kt METAR LFLW 271730Z AUTO 34010KT CAVOK 22/11 Q1022
7:00 da tarde
V
73 °F 6¼ mi+ - 330° 330° 8 kt METAR LFLW 271700Z AUTO 33008KT 280V360 CAVOK 23/12 Q1022 NOSIG
6:30 da tarde
V
75 °F 6¼ mi+ - 310° 310° 9 kt METAR LFLW 271630Z AUTO 31009KT 280V350 CAVOK 24/12 Q1022 NOSIG
6:00 da tarde
V
75 °F 6¼ mi+ - 330° 330° 9 kt METAR LFLW 271600Z AUTO 33009KT 290V040 CAVOK 24/13 Q1022 NOSIG
5:30 da tarde
V
75 °F 6¼ mi+ - 320° 320° 8 kt METAR LFLW 271530Z AUTO 32008KT 280V010 CAVOK 24/13 Q1022 NOSIG
5:00 da tarde
V
75 °F 6¼ mi+ - 330° 330° 8 kt METAR LFLW 271500Z AUTO 33008KT 260V360 CAVOK 24/13 Q1022 NOSIG
4:30 da tarde
V
75 °F 6¼ mi+ - 310° 310° 9 kt METAR LFLW 271430Z AUTO 31009KT 260V350 CAVOK 24/12 Q1023 NOSIG
Dados mais antigos

Baixe nosso aplicativo

Fácil acesso a todas as condições meteorológicas da aviação no seu celular e no seu tablet.
Com muitas características não disponíveis no site, como suporte offline e uma lista pessoal de aeroportos.

Nós e terceiros acompanhamos seu comportamento na internet em nosso site com cookies. Se você continuar, nós assumimos que você concorda com nossa política de cookies. Saiba mais